sensor_id;sensor_type;location;lat;lon;timestamp;P1;durP1;ratioP1;P2;durP2;ratioP2
21448;SDS011;10885;52.830;13.788;2023-03-21T00:01:33;14.73;;;7.72;;
21448;SDS011;10885;52.830;13.788;2023-03-21T00:06:54;12.52;;;7.28;;
21448;SDS011;10885;52.830;13.788;2023-03-21T00:17:36;15.23;;;7.20;;
21448;SDS011;10885;52.830;13.788;2023-03-21T00:22:59;15.20;;;8.13;;
21448;SDS011;10885;52.830;13.788;2023-03-21T00:28:21;16.83;;;8.52;;
21448;SDS011;10885;52.830;13.788;2023-03-21T00:33:42;14.30;;;7.78;;
21448;SDS011;10885;52.830;13.788;2023-03-21T00:39:04;14.02;;;7.85;;
21448;SDS011;10885;52.830;13.788;2023-03-21T00:44:25;17.02;;;8.10;;
21448;SDS011;10885;52.830;13.788;2023-03-21T00:49:47;14.05;;;7.72;;
21448;SDS011;10885;52.830;13.788;2023-03-21T00:55:10;14.43;;;7.90;;
21448;SDS011;10885;52.830;13.788;2023-03-21T01:00:34;14.45;;;7.70;;
21448;SDS011;10885;52.830;13.788;2023-03-21T01:05:56;13.95;;;7.47;;
21448;SDS011;10885;52.830;13.788;2023-03-21T01:11:25;13.70;;;7.40;;
21448;SDS011;10885;52.830;13.788;2023-03-21T01:16:48;17.48;;;7.20;;
21448;SDS011;10885;52.830;13.788;2023-03-21T01:22:13;13.60;;;7.10;;
21448;SDS011;10885;52.830;13.788;2023-03-21T01:32:55;22.25;;;7.45;;
21448;SDS011;10885;52.830;13.788;2023-03-21T01:38:16;15.10;;;7.25;;
21448;SDS011;10885;52.830;13.788;2023-03-21T01:43:37;12.98;;;6.60;;
21448;SDS011;10885;52.830;13.788;2023-03-21T06:03:08;41.05;;;23.75;;
21448;SDS011;10885;52.830;13.788;2023-03-21T06:09:04;45.53;;;25.20;;
21448;SDS011;10885;52.830;13.788;2023-03-21T06:14:26;47.15;;;25.98;;
21448;SDS011;10885;52.830;13.788;2023-03-21T06:20:07;41.97;;;24.67;;
21448;SDS011;10885;52.830;13.788;2023-03-21T06:25:43;44.50;;;26.02;;
21448;SDS011;10885;52.830;13.788;2023-03-21T06:41:47;45.27;;;26.40;;
21448;SDS011;10885;52.830;13.788;2023-03-21T06:47:08;46.40;;;26.77;;
21448;SDS011;10885;52.830;13.788;2023-03-21T06:52:30;48.03;;;27.13;;
21448;SDS011;10885;52.830;13.788;2023-03-21T06:57:52;40.25;;;26.38;;
21448;SDS011;10885;52.830;13.788;2023-03-21T07:03:14;47.97;;;27.85;;
21448;SDS011;10885;52.830;13.788;2023-03-21T07:08:37;48.70;;;28.42;;
21448;SDS011;10885;52.830;13.788;2023-03-21T07:14:00;44.88;;;26.40;;
21448;SDS011;10885;52.830;13.788;2023-03-21T07:19:22;41.70;;;27.17;;
21448;SDS011;10885;52.830;13.788;2023-03-21T07:24:43;49.97;;;26.30;;
21448;SDS011;10885;52.830;13.788;2023-03-21T07:30:15;41.45;;;26.20;;
21448;SDS011;10885;52.830;13.788;2023-03-21T07:35:37;43.40;;;26.65;;
21448;SDS011;10885;52.830;13.788;2023-03-21T07:40:59;48.65;;;28.17;;
21448;SDS011;10885;52.830;13.788;2023-03-21T07:46:23;48.50;;;27.33;;
21448;SDS011;10885;52.830;13.788;2023-03-21T07:51:44;41.90;;;26.38;;
21448;SDS011;10885;52.830;13.788;2023-03-21T07:57:06;49.47;;;27.42;;
21448;SDS011;10885;52.830;13.788;2023-03-21T08:07:47;44.30;;;26.45;;
21448;SDS011;10885;52.830;13.788;2023-03-21T08:13:09;47.17;;;27.67;;
21448;SDS011;10885;52.830;13.788;2023-03-21T08:18:30;56.28;;;31.15;;
21448;SDS011;10885;52.830;13.788;2023-03-21T08:23:51;51.63;;;30.10;;
21448;SDS011;10885;52.830;13.788;2023-03-21T08:29:13;49.42;;;29.70;;
21448;SDS011;10885;52.830;13.788;2023-03-21T08:39:54;51.55;;;28.63;;
21448;SDS011;10885;52.830;13.788;2023-03-21T08:45:16;54.00;;;29.65;;
21448;SDS011;10885;52.830;13.788;2023-03-21T08:50:37;46.22;;;27.50;;
21448;SDS011;10885;52.830;13.788;2023-03-21T09:01:19;48.38;;;26.33;;
21448;SDS011;10885;52.830;13.788;2023-03-21T09:06:40;45.53;;;25.33;;
21448;SDS011;10885;52.830;13.788;2023-03-21T09:12:05;45.47;;;25.70;;
21448;SDS011;10885;52.830;13.788;2023-03-21T09:17:27;42.92;;;26.05;;
21448;SDS011;10885;52.830;13.788;2023-03-21T09:22:49;48.75;;;27.35;;
21448;SDS011;10885;52.830;13.788;2023-03-21T09:28:12;52.35;;;28.55;;
21448;SDS011;10885;52.830;13.788;2023-03-21T09:33:33;54.17;;;29.38;;
21448;SDS011;10885;52.830;13.788;2023-03-21T09:38:54;46.88;;;27.60;;
21448;SDS011;10885;52.830;13.788;2023-03-21T09:44:29;53.30;;;29.67;;
21448;SDS011;10885;52.830;13.788;2023-03-21T09:50:13;52.25;;;29.25;;
21448;SDS011;10885;52.830;13.788;2023-03-21T10:01:03;54.40;;;28.98;;
21448;SDS011;10885;52.830;13.788;2023-03-21T10:06:30;50.05;;;27.67;;
21448;SDS011;10885;52.830;13.788;2023-03-21T10:12:06;50.45;;;26.52;;
21448;SDS011;10885;52.830;13.788;2023-03-21T10:17:36;55.92;;;28.95;;
21448;SDS011;10885;52.830;13.788;2023-03-21T10:23:04;54.45;;;26.85;;
21448;SDS011;10885;52.830;13.788;2023-03-21T10:28:28;45.63;;;25.67;;
21448;SDS011;10885;52.830;13.788;2023-03-21T10:34:08;39.75;;;23.85;;
21448;SDS011;10885;52.830;13.788;2023-03-21T10:39:38;41.67;;;24.27;;
21448;SDS011;10885;52.830;13.788;2023-03-21T10:45:01;34.83;;;20.15;;
21448;SDS011;10885;52.830;13.788;2023-03-21T10:50:22;33.97;;;20.23;;
21448;SDS011;10885;52.830;13.788;2023-03-21T10:55:53;33.75;;;19.58;;
21448;SDS011;10885;52.830;13.788;2023-03-21T11:01:23;32.60;;;20.02;;
21448;SDS011;10885;52.830;13.788;2023-03-21T11:07:06;38.70;;;19.83;;
21448;SDS011;10885;52.830;13.788;2023-03-21T11:12:37;33.13;;;20.50;;
21448;SDS011;10885;52.830;13.788;2023-03-21T11:18:11;36.50;;;20.20;;
21448;SDS011;10885;52.830;13.788;2023-03-21T11:23:37;31.40;;;19.38;;
21448;SDS011;10885;52.830;13.788;2023-03-21T11:29:07;35.88;;;20.63;;
21448;SDS011;10885;52.830;13.788;2023-03-21T11:35:27;33.47;;;19.40;;
21448;SDS011;10885;52.830;13.788;2023-03-21T11:40:50;30.05;;;18.73;;
21448;SDS011;10885;52.830;13.788;2023-03-21T11:46:14;33.75;;;19.95;;
21448;SDS011;10885;52.830;13.788;2023-03-21T12:08:53;34.90;;;20.48;;
21448;SDS011;10885;52.830;13.788;2023-03-21T12:19:53;32.70;;;19.35;;
21448;SDS011;10885;52.830;13.788;2023-03-21T12:25:45;32.65;;;18.90;;
21448;SDS011;10885;52.830;13.788;2023-03-21T12:48:48;37.58;;;21.55;;
21448;SDS011;10885;52.830;13.788;2023-03-21T12:53:58;38.53;;;21.48;;
21448;SDS011;10885;52.830;13.788;2023-03-21T12:59:49;35.10;;;20.90;;
21448;SDS011;10885;52.830;13.788;2023-03-21T13:05:26;94.57;;;47.88;;
21448;SDS011;10885;52.830;13.788;2023-03-21T13:10:57;34.72;;;20.60;;
21448;SDS011;10885;52.830;13.788;2023-03-21T13:16:22;34.13;;;20.00;;
21448;SDS011;10885;52.830;13.788;2023-03-21T13:27:29;36.35;;;19.63;;
21448;SDS011;10885;52.830;13.788;2023-03-21T13:38:28;35.00;;;20.33;;
21448;SDS011;10885;52.830;13.788;2023-03-21T13:49:36;33.15;;;18.98;;
21448;SDS011;10885;52.830;13.788;2023-03-21T13:54:57;32.30;;;18.52;;
21448;SDS011;10885;52.830;13.788;2023-03-21T14:00:31;35.45;;;19.08;;
21448;SDS011;10885;52.830;13.788;2023-03-21T14:05:59;33.45;;;18.80;;
21448;SDS011;10885;52.830;13.788;2023-03-21T14:16:41;31.23;;;19.17;;
21448;SDS011;10885;52.830;13.788;2023-03-21T14:22:08;29.65;;;18.23;;
21448;SDS011;10885;52.830;13.788;2023-03-21T14:27:32;31.75;;;18.60;;
21448;SDS011;10885;52.830;13.788;2023-03-21T14:32:55;28.13;;;17.17;;
21448;SDS011;10885;52.830;13.788;2023-03-21T14:38:22;28.33;;;17.33;;
21448;SDS011;10885;52.830;13.788;2023-03-21T14:43:59;30.80;;;18.77;;
21448;SDS011;10885;52.830;13.788;2023-03-21T14:49:47;29.83;;;18.50;;
21448;SDS011;10885;52.830;13.788;2023-03-21T14:55:13;29.02;;;17.75;;
21448;SDS011;10885;52.830;13.788;2023-03-21T15:00:36;29.98;;;18.05;;
21448;SDS011;10885;52.830;13.788;2023-03-21T15:05:57;32.33;;;17.73;;
21448;SDS011;10885;52.830;13.788;2023-03-21T15:11:19;28.33;;;16.65;;
21448;SDS011;10885;52.830;13.788;2023-03-21T15:16:53;30.17;;;17.33;;
21448;SDS011;10885;52.830;13.788;2023-03-21T15:22:17;28.52;;;16.02;;
21448;SDS011;10885;52.830;13.788;2023-03-21T15:27:45;26.52;;;16.77;;
21448;SDS011;10885;52.830;13.788;2023-03-21T15:33:08;26.67;;;16.63;;
21448;SDS011;10885;52.830;13.788;2023-03-21T15:38:37;24.02;;;15.45;;
21448;SDS011;10885;52.830;13.788;2023-03-21T15:54:52;21.47;;;15.53;;
21448;SDS011;10885;52.830;13.788;2023-03-21T16:01:02;24.23;;;15.50;;
21448;SDS011;10885;52.830;13.788;2023-03-21T16:11:37;21.75;;;13.25;;
21448;SDS011;10885;52.830;13.788;2023-03-21T16:16:59;23.98;;;14.52;;
21448;SDS011;10885;52.830;13.788;2023-03-21T16:27:42;23.97;;;14.70;;
21448;SDS011;10885;52.830;13.788;2023-03-21T16:33:03;23.02;;;14.90;;
21448;SDS011;10885;52.830;13.788;2023-03-21T16:38:24;24.08;;;14.60;;
21448;SDS011;10885;52.830;13.788;2023-03-21T16:43:45;22.02;;;14.65;;
21448;SDS011;10885;52.830;13.788;2023-03-21T16:49:13;73.53;;;41.65;;
21448;SDS011;10885;52.830;13.788;2023-03-21T16:54:38;20.95;;;13.88;;
21448;SDS011;10885;52.830;13.788;2023-03-21T16:59:59;18.42;;;13.25;;
21448;SDS011;10885;52.830;13.788;2023-03-21T17:05:22;23.73;;;14.20;;
21448;SDS011;10885;52.830;13.788;2023-03-21T17:10:45;22.25;;;13.38;;
21448;SDS011;10885;52.830;13.788;2023-03-21T17:16:08;21.50;;;14.30;;
21448;SDS011;10885;52.830;13.788;2023-03-21T17:21:31;22.77;;;12.95;;
21448;SDS011;10885;52.830;13.788;2023-03-21T17:26:52;21.77;;;13.60;;
21448;SDS011;10885;52.830;13.788;2023-03-21T17:32:14;22.52;;;12.70;;
21448;SDS011;10885;52.830;13.788;2023-03-21T17:42:58;18.60;;;13.35;;
21448;SDS011;10885;52.830;13.788;2023-03-21T17:48:21;87.95;;;45.40;;
21448;SDS011;10885;52.830;13.788;2023-03-21T17:59:05;21.15;;;12.38;;
21448;SDS011;10885;52.830;13.788;2023-03-21T18:04:27;19.63;;;12.63;;
21448;SDS011;10885;52.830;13.788;2023-03-21T18:09:47;22.30;;;13.15;;
21448;SDS011;10885;52.830;13.788;2023-03-21T18:15:08;22.40;;;12.15;;
21448;SDS011;10885;52.830;13.788;2023-03-21T18:20:34;17.63;;;11.63;;
21448;SDS011;10885;52.830;13.788;2023-03-21T18:26:13;18.67;;;12.35;;
21448;SDS011;10885;52.830;13.788;2023-03-21T18:31:37;17.13;;;12.25;;
21448;SDS011;10885;52.830;13.788;2023-03-21T18:36:57;19.88;;;11.80;;
21448;SDS011;10885;52.830;13.788;2023-03-21T18:42:19;32.25;;;20.27;;
21448;SDS011;10885;52.830;13.788;2023-03-21T18:47:40;18.80;;;13.35;;
21448;SDS011;10885;52.830;13.788;2023-03-21T18:53:02;18.50;;;13.57;;
21448;SDS011;10885;52.830;13.788;2023-03-21T18:58:24;19.83;;;12.48;;
21448;SDS011;10885;52.830;13.788;2023-03-21T19:09:25;19.48;;;14.02;;
21448;SDS011;10885;52.830;13.788;2023-03-21T19:14:51;22.77;;;13.98;;
21448;SDS011;10885;52.830;13.788;2023-03-21T19:20:12;22.52;;;13.77;;
21448;SDS011;10885;52.830;13.788;2023-03-21T19:25:34;20.02;;;14.23;;
21448;SDS011;10885;52.830;13.788;2023-03-21T19:30:54;20.50;;;15.55;;
21448;SDS011;10885;52.830;13.788;2023-03-21T19:36:16;23.17;;;15.50;;
21448;SDS011;10885;52.830;13.788;2023-03-21T19:41:42;20.13;;;15.00;;
21448;SDS011;10885;52.830;13.788;2023-03-21T19:47:04;23.58;;;15.65;;
21448;SDS011;10885;52.830;13.788;2023-03-21T19:52:26;29.73;;;17.33;;
21448;SDS011;10885;52.830;13.788;2023-03-21T19:57:47;20.58;;;15.65;;
21448;SDS011;10885;52.830;13.788;2023-03-21T20:03:08;24.98;;;17.10;;
21448;SDS011;10885;52.830;13.788;2023-03-21T20:08:30;25.27;;;17.50;;
21448;SDS011;10885;52.830;13.788;2023-03-21T20:14:08;26.90;;;19.60;;
21448;SDS011;10885;52.830;13.788;2023-03-21T20:19:30;30.35;;;20.55;;
21448;SDS011;10885;52.830;13.788;2023-03-21T20:24:51;31.98;;;21.35;;
21448;SDS011;10885;52.830;13.788;2023-03-21T20:35:34;36.95;;;22.90;;
21448;SDS011;10885;52.830;13.788;2023-03-21T20:41:15;34.43;;;24.50;;
21448;SDS011;10885;52.830;13.788;2023-03-21T20:46:36;35.10;;;23.20;;
21448;SDS011;10885;52.830;13.788;2023-03-21T20:57:38;38.63;;;25.98;;
21448;SDS011;10885;52.830;13.788;2023-03-21T21:03:00;44.28;;;28.35;;
21448;SDS011;10885;52.830;13.788;2023-03-21T21:08:21;41.72;;;25.88;;
21448;SDS011;10885;52.830;13.788;2023-03-21T21:13:42;40.47;;;28.10;;
21448;SDS011;10885;52.830;13.788;2023-03-21T21:19:04;45.85;;;27.92;;
21448;SDS011;10885;52.830;13.788;2023-03-21T21:24:24;41.55;;;27.95;;
21448;SDS011;10885;52.830;13.788;2023-03-21T21:29:46;39.20;;;26.75;;
21448;SDS011;10885;52.830;13.788;2023-03-21T21:35:09;37.63;;;27.33;;
21448;SDS011;10885;52.830;13.788;2023-03-21T21:40:31;42.03;;;27.70;;
21448;SDS011;10885;52.830;13.788;2023-03-21T21:45:52;39.47;;;28.45;;
21448;SDS011;10885;52.830;13.788;2023-03-21T21:51:13;44.45;;;29.20;;
21448;SDS011;10885;52.830;13.788;2023-03-21T21:56:37;44.92;;;30.83;;
21448;SDS011;10885;52.830;13.788;2023-03-21T22:07:19;40.55;;;28.08;;
21448;SDS011;10885;52.830;13.788;2023-03-21T22:12:40;46.10;;;29.65;;
